Time;durP1;ratioP1;P1;durP2;ratioP2;P2;SDS_P1;SDS_P2;PMS_P1;PMS_P2;Temp;Humidity;BMP_temperature;BMP_pressure;BME280_temperature;BME280_humidity;BME280_pressure;Samples;Min_cycle;Max_cycle;Signal;HPM_P1;HPM_P2
2023/07/02 00:01:46;;;;;;;6.13;2.13;;;15.40;99.90;;;;;;6247298;23;20020;-84
2023/07/02 00:04:16;;;;;;;8.85;2.88;;;15.30;99.90;;;;;;6247902;23;20024;-85
2023/07/02 00:06:46;;;;;;;8.07;2.42;;;15.30;99.90;;;;;;6247034;23;20027;-83
2023/07/02 00:09:12;;;;;;;11.35;2.90;;;15.30;99.90;;;;;;6220422;23;20034;-86
2023/07/02 00:11:38;;;;;;;9.07;2.28;;;15.20;99.90;;;;;;6247896;23;20427;-87
2023/07/02 00:14:08;;;;;;;8.25;2.22;;;15.20;99.90;;;;;;6247229;23;20060;-84
2023/07/02 00:16:37;;;;;;;8.55;2.75;;;15.10;99.90;;;;;;6247892;23;20052;-84
2023/07/02 00:19:03;;;;;;;7.40;2.70;;;15.10;99.90;;;;;;6248353;23;20020;-84
2023/07/02 00:21:29;;;;;;;7.53;3.17;;;15.10;99.90;;;;;;6248578;23;20023;-85
2023/07/02 00:23:58;;;;;;;9.38;2.47;;;15.00;99.90;;;;;;6221119;23;20038;-84
2023/07/02 00:26:28;;;;;;;8.52;2.60;;;15.00;99.90;;;;;;6220000;23;20023;-85
2023/07/02 00:28:54;;;;;;;5.38;2.40;;;15.00;99.90;;;;;;6219934;23;20031;-84
2023/07/02 00:31:20;;;;;;;6.70;2.20;;;14.90;99.90;;;;;;6247064;23;20027;-84
2023/07/02 00:33:46;;;;;;;8.68;2.75;;;14.90;99.90;;;;;;6246661;23;20057;-86
2023/07/02 00:36:16;;;;;;;10.55;3.08;;;14.90;99.90;;;;;;6247409;23;20024;-83
2023/07/02 00:38:47;;;;;;;7.70;2.50;;;14.90;99.90;;;;;;6247260;23;20397;-84
2023/07/02 00:41:13;;;;;;;8.50;2.40;;;14.80;99.90;;;;;;6247092;23;20024;-83
2023/07/02 00:43:43;;;;;;;8.57;3.08;;;14.80;99.90;;;;;;6246331;23;20047;-84
2023/07/02 00:46:11;;;;;;;9.55;2.72;;;14.80;99.90;;;;;;6246502;23;20020;-83
2023/07/02 00:48:39;;;;;;;6.15;2.80;;;14.80;99.90;;;;;;6247014;23;20051;-86
2023/07/02 00:51:05;;;;;;;7.43;3.50;;;14.70;99.90;;;;;;6220125;23;20351;-83
2023/07/02 00:53:32;;;;;;;10.75;3.50;;;14.70;99.90;;;;;;6246458;23;20477;-88
2023/07/02 00:55:58;;;;;;;6.47;2.53;;;14.70;99.90;;;;;;6246711;23;20027;-84
2023/07/02 00:58:24;;;;;;;11.32;3.30;;;14.70;99.90;;;;;;6220285;23;20024;-86
2023/07/02 01:00:49;;;;;;;5.90;2.17;;;14.70;99.90;;;;;;6219915;23;20469;-84
2023/07/02 01:03:15;;;;;;;7.78;3.13;;;14.70;99.90;;;;;;6247164;23;20172;-86
2023/07/02 01:05:41;;;;;;;11.27;2.53;;;14.60;99.90;;;;;;6220436;23;20134;-85
2023/07/02 01:08:07;;;;;;;5.40;2.70;;;14.60;99.90;;;;;;6246684;23;20091;-84
2023/07/02 01:10:35;;;;;;;12.98;3.45;;;14.60;99.90;;;;;;6246983;23;20059;-86
2023/07/02 01:13:05;;;;;;;10.05;3.70;;;14.50;99.90;;;;;;6246927;23;20020;-84
2023/07/02 01:15:31;;;;;;;9.15;2.80;;;14.50;99.90;;;;;;6246585;23;20020;-90
2023/07/02 01:17:57;;;;;;;9.05;2.85;;;14.50;99.90;;;;;;6247058;23;20466;-85
2023/07/02 01:20:26;;;;;;;9.73;3.45;;;14.50;99.90;;;;;;6221209;23;20020;-83
2023/07/02 01:22:52;;;;;;;9.82;3.50;;;14.50;99.90;;;;;;6248078;23;20439;-84
2023/07/02 01:25:18;;;;;;;10.80;3.28;;;14.40;99.90;;;;;;6221400;23;20047;-85
2023/07/02 01:27:44;;;;;;;13.25;3.47;;;14.50;99.90;;;;;;6247009;23;20086;-84
2023/07/02 01:30:10;;;;;;;6.93;2.95;;;14.30;99.90;;;;;;6220252;23;20008;-84
2023/07/02 01:32:38;;;;;;;9.35;3.67;;;14.30;99.90;;;;;;6219863;23;20031;-83
2023/07/02 01:35:04;;;;;;;11.65;3.47;;;14.30;99.90;;;;;;6247213;23;20017;-86
2023/07/02 01:37:36;;;;;;;13.70;3.42;;;14.30;99.90;;;;;;6246947;23;20020;-83
2023/07/02 01:40:05;;;;;;;9.57;3.47;;;14.20;99.90;;;;;;6219804;23;20082;-83
2023/07/02 01:42:32;;;;;;;8.25;3.42;;;14.20;99.90;;;;;;6245724;23;20031;-84
2023/07/02 01:44:58;;;;;;;9.13;2.67;;;14.20;99.90;;;;;;6246421;23;20066;-83
2023/07/02 01:47:23;;;;;;;6.40;2.58;;;14.10;99.90;;;;;;6246053;23;20016;-83
2023/07/02 01:49:50;;;;;;;10.10;3.17;;;14.10;99.90;;;;;;6218975;23;20042;-86
2023/07/02 01:52:16;;;;;;;7.55;2.95;;;14.00;99.90;;;;;;6246295;23;20016;-84
2023/07/02 01:54:42;;;;;;;12.10;3.05;;;14.00;99.90;;;;;;6245780;23;20020;-88
2023/07/02 01:57:08;;;;;;;11.50;3.00;;;14.10;99.90;;;;;;6246540;23;20017;-84
2023/07/02 01:59:34;;;;;;;9.52;3.40;;;14.00;99.90;;;;;;6245857;23;20545;-86
2023/07/02 02:02:00;;;;;;;7.57;2.88;;;14.00;99.90;;;;;;6246615;23;20051;-83
2023/07/02 02:04:26;;;;;;;13.30;3.92;;;13.90;99.90;;;;;;6219671;23;20501;-83
2023/07/02 02:06:52;;;;;;;10.23;3.45;;;13.90;99.90;;;;;;6246500;22;20082;-83
2023/07/02 02:09:18;;;;;;;17.38;4.65;;;13.90;99.90;;;;;;6246535;23;20016;-84
2023/07/02 02:11:47;;;;;;;17.42;4.15;;;13.90;99.90;;;;;;6246292;23;20020;-83
2023/07/02 02:14:13;;;;;;;8.38;3.50;;;13.90;99.90;;;;;;6246459;23;20095;-84
2023/07/02 02:16:39;;;;;;;11.27;3.70;;;13.80;99.90;;;;;;6220256;23;20063;-84
2023/07/02 02:19:05;;;;;;;13.57;3.70;;;13.80;99.90;;;;;;6246916;23;20027;-84
2023/07/02 02:21:31;;;;;;;12.75;3.10;;;13.80;99.90;;;;;;6246364;23;20027;-83
2023/07/02 02:23:57;;;;;;;13.77;3.40;;;13.80;99.90;;;;;;6220361;23;20019;-84
2023/07/02 02:26:25;;;;;;;10.20;3.20;;;13.70;99.90;;;;;;6245607;23;20012;-86
2023/07/02 02:28:51;;;;;;;10.88;3.20;;;13.70;99.90;;;;;;6245202;23;20038;-84
2023/07/02 02:31:17;;;;;;;12.77;4.18;;;13.70;99.90;;;;;;6245448;23;20013;-86
2023/07/02 02:33:43;;;;;;;11.23;3.60;;;13.70;99.90;;;;;;6218673;23;20066;-84
2023/07/02 02:36:09;;;;;;;13.77;3.60;;;13.70;99.90;;;;;;6245864;23;20020;-84
2023/07/02 02:38:37;;;;;;;13.27;3.90;;;13.60;99.90;;;;;;6245540;23;20113;-84
2023/07/02 02:41:02;;;;;;;16.35;4.43;;;13.70;99.90;;;;;;6245560;23;20016;-84
2023/07/02 02:43:28;;;;;;;11.75;4.07;;;13.60;99.90;;;;;;6245759;23;20368;-85
2023/07/02 02:45:54;;;;;;;14.40;4.68;;;13.70;99.90;;;;;;6245068;23;20023;-85
2023/07/02 02:48:22;;;;;;;11.32;3.47;;;13.60;99.90;;;;;;6245789;23;20012;-84
2023/07/02 02:50:47;;;;;;;12.88;3.58;;;13.60;99.90;;;;;;6218849;23;20446;-84
2023/07/02 02:53:13;;;;;;;11.65;3.55;;;13.50;99.90;;;;;;6245247;23;20031;-84
2023/07/02 02:55:39;;;;;;;20.05;5.57;;;13.50;99.90;;;;;;6245538;23;20099;-84
2023/07/02 02:58:05;;;;;;;13.65;4.82;;;13.50;99.90;;;;;;6245276;23;20099;-85
2023/07/02 03:00:30;;;;;;;14.02;4.05;;;13.50;99.90;;;;;;6218368;23;20028;-84
2023/07/02 03:02:56;;;;;;;10.80;4.38;;;13.50;99.90;;;;;;6245274;23;20066;-87
2023/07/02 03:05:22;;;;;;;12.60;4.78;;;13.70;99.90;;;;;;6218537;23;20093;-85
2023/07/02 03:07:49;;;;;;;18.33;5.95;;;13.50;99.90;;;;;;6245154;23;20020;-84
2023/07/02 03:10:14;;;;;;;16.48;4.40;;;13.40;99.90;;;;;;6218175;23;20103;-85
2023/07/02 03:12:40;;;;;;;9.57;3.28;;;13.70;99.90;;;;;;6245476;23;20056;-84
2023/07/02 03:15:06;;;;;;;11.60;3.45;;;13.40;99.90;;;;;;6245096;23;20416;-84
2023/07/02 03:17:32;;;;;;;11.48;4.28;;;13.40;99.90;;;;;;6245807;23;20100;-84
2023/07/02 03:19:58;;;;;;;14.23;4.22;;;13.40;99.90;;;;;;6245853;23;20051;-84
2023/07/02 03:22:24;;;;;;;12.13;3.60;;;13.70;99.90;;;;;;6245663;23;20016;-84
2023/07/02 03:24:49;;;;;;;12.82;4.65;;;13.40;99.90;;;;;;6246090;23;20335;-84
2023/07/02 03:27:15;;;;;;;10.30;3.80;;;13.40;99.90;;;;;;6245288;23;20020;-84
2023/07/02 03:29:41;;;;;;;21.52;5.55;;;13.40;99.90;;;;;;6218879;23;20147;-87
2023/07/02 03:32:07;;;;;;;15.20;4.57;;;13.40;99.90;;;;;;6245414;23;20060;-83
2023/07/02 03:34:32;;;;;;;11.00;3.95;;;13.40;99.90;;;;;;6245355;23;20016;-86
2023/07/02 03:36:58;;;;;;;11.45;3.45;;;13.40;99.90;;;;;;6245138;23;20020;-84
2023/07/02 03:39:24;;;;;;;14.05;3.42;;;13.40;99.90;;;;;;6245140;23;20502;-84
2023/07/02 03:41:49;;;;;;;12.23;3.38;;;13.40;99.90;;;;;;6246387;23;20562;-84
2023/07/02 03:44:15;;;;;;;12.15;3.55;;;13.40;99.90;;;;;;6219794;23;20017;-83
2023/07/02 03:46:41;;;;;;;10.05;3.33;;;13.50;99.90;;;;;;6246866;23;20024;-83
2023/07/02 03:49:06;;;;;;;10.52;3.58;;;13.50;99.90;;;;;;6247035;23;20400;-85
2023/07/02 03:51:32;;;;;;;15.88;3.45;;;13.50;99.90;;;;;;6219978;23;20031;-82
2023/07/02 03:53:58;;;;;;;10.02;3.13;;;13.50;99.90;;;;;;6247162;23;20462;-83
2023/07/02 03:56:24;;;;;;;11.48;3.47;;;13.60;99.90;;;;;;6247079;23;20467;-83
2023/07/02 03:58:50;;;;;;;9.13;3.67;;;13.60;99.90;;;;;;6246862;23;20355;-84
2023/07/02 04:01:16;;;;;;;9.65;3.35;;;13.60;99.90;;;;;;6220350;23;20028;-84
2023/07/02 04:03:49;;;;;;;9.63;2.95;;;13.70;99.90;;;;;;6220181;23;20027;-84
2023/07/02 04:06:15;;;;;;;14.00;3.67;;;13.80;99.90;;;;;;6247331;23;20027;-86
2023/07/02 04:08:41;;;;;;;12.50;3.70;;;13.80;99.90;;;;;;6246962;23;20024;-83
2023/07/02 04:11:07;;;;;;;11.43;3.40;;;13.90;99.90;;;;;;6247463;23;20075;-83
2023/07/02 04:13:32;;;;;;;9.88;3.25;;;13.90;99.90;;;;;;6247726;23;20308;-84
2023/07/02 04:15:58;;;;;;;10.73;3.88;;;13.90;99.90;;;;;;6247492;23;20047;-84
2023/07/02 04:18:24;;;;;;;10.20;3.55;;;14.00;99.90;;;;;;6247013;23;20020;-83
2023/07/02 04:20:49;;;;;;;8.80;3.40;;;14.00;99.90;;;;;;6220720;23;20091;-86
2023/07/02 04:23:16;;;;;;;10.02;2.78;;;14.10;99.90;;;;;;6248376;23;20017;-83
2023/07/02 04:25:41;;;;;;;7.18;3.05;;;14.20;99.90;;;;;;6247348;23;20103;-84
2023/07/02 04:28:07;;;;;;;8.85;2.88;;;14.20;99.90;;;;;;6247216;23;20020;-84
2023/07/02 04:30:34;;;;;;;7.82;2.72;;;14.20;99.90;;;;;;6220145;23;20028;-85
2023/07/02 04:33:00;;;;;;;11.57;4.28;;;14.50;99.90;;;;;;6247048;23;20316;-83
2023/07/02 04:35:26;;;;;;;10.77;3.58;;;14.30;99.90;;;;;;6219916;23;20016;-84
2023/07/02 04:37:51;;;;;;;9.52;3.58;;;14.30;99.90;;;;;;6220313;23;20071;-85
2023/07/02 04:40:17;;;;;;;11.80;3.78;;;14.30;99.90;;;;;;6246849;23;20024;-84
2023/07/02 04:42:46;;;;;;;9.23;3.20;;;14.40;99.90;;;;;;6219611;23;20482;-83
2023/07/02 04:45:15;;;;;;;8.18;3.45;;;14.40;99.90;;;;;;6219616;23;20351;-84
2023/07/02 04:47:44;;;;;;;10.70;3.83;;;14.40;99.90;;;;;;6246881;23;20431;-85
2023/07/02 04:50:11;;;;;;;9.68;3.42;;;14.40;99.90;;;;;;6246530;23;20016;-83
2023/07/02 04:52:38;;;;;;;15.88;4.07;;;14.50;99.90;;;;;;6246603;23;20024;-84
2023/07/02 04:55:04;;;;;;;9.63;3.05;;;14.50;99.90;;;;;;6247215;23;20027;-84
2023/07/02 04:57:30;;;;;;;9.85;3.08;;;14.60;99.90;;;;;;6247569;23;20371;-84
2023/07/02 04:59:55;;;;;;;8.05;3.05;;;14.60;99.90;;;;;;6219534;23;20028;-83
2023/07/02 05:02:21;;;;;;;8.00;3.10;;;14.70;99.90;;;;;;6194498;23;20035;-83
2023/07/02 05:04:47;;;;;;;18.77;4.20;;;14.70;99.90;;;;;;6247124;23;20327;-83
2023/07/02 05:07:12;;;;;;;8.65;2.85;;;14.80;99.90;;;;;;6247587;22;20055;-84
2023/07/02 05:09:38;;;;;;;10.90;3.30;;;14.90;99.90;;;;;;6247647;23;20103;-82
2023/07/02 05:12:04;;;;;;;9.05;3.80;;;15.00;99.90;;;;;;6220709;23;20101;-83
2023/07/02 05:14:30;;;;;;;8.93;2.88;;;15.10;99.90;;;;;;6248161;23;20071;-83
2023/07/02 05:16:55;;;;;;;6.88;2.30;;;15.10;99.90;;;;;;6247347;23;20070;-83
2023/07/02 05:19:21;;;;;;;9.13;2.78;;;15.30;99.90;;;;;;6246750;23;20069;-84
2023/07/02 05:21:47;;;;;;;11.68;4.10;;;15.50;99.90;;;;;;6221656;23;20031;-82
2023/07/02 05:24:13;;;;;;;11.38;3.50;;;15.50;99.90;;;;;;6249116;23;20016;-84
2023/07/02 05:26:38;;;;;;;9.30;3.70;;;15.60;99.90;;;;;;6250766;23;20016;-84
2023/07/02 05:29:05;;;;;;;8.43;2.67;;;15.80;99.90;;;;;;6249290;23;20497;-86
2023/07/02 05:31:31;;;;;;;10.23;2.53;;;15.80;99.90;;;;;;6249485;23;20020;-86
2023/07/02 05:33:57;;;;;;;11.13;3.47;;;15.90;99.90;;;;;;6249592;23;20324;-84
2023/07/02 05:36:22;;;;;;;9.38;3.03;;;15.90;99.90;;;;;;6249541;23;20023;-85
2023/07/02 05:38:48;;;;;;;8.77;2.67;;;15.90;99.90;;;;;;6223424;23;20024;-84
2023/07/02 05:41:21;;;;;;;8.48;2.15;;;15.80;99.90;;;;;;6250078;23;20502;-84
2023/07/02 05:43:47;;;;;;;8.27;2.65;;;15.80;99.90;;;;;;6249626;23;20370;-88
2023/07/02 05:46:14;;;;;;;6.75;2.47;;;15.90;99.90;;;;;;6250032;23;20090;-83
2023/07/02 05:48:41;;;;;;;4.88;1.80;;;16.00;99.90;;;;;;6224247;23;20016;-83
2023/07/02 05:51:07;;;;;;;10.25;2.60;;;15.30;99.90;;;;;;6251959;23;20036;-85
2023/07/02 05:53:33;;;;;;;5.30;1.75;;;16.40;99.90;;;;;;6252506;23;20107;-83
2023/07/02 05:55:59;;;;;;;8.90;2.35;;;16.40;99.90;;;;;;6225416;23;20369;-85
2023/07/02 05:58:25;;;;;;;6.22;2.08;;;16.60;99.90;;;;;;6250867;23;20055;-84
2023/07/02 06:00:51;;;;;;;9.13;2.90;;;16.60;99.90;;;;;;6252443;23;20064;-83
2023/07/02 06:03:20;;;;;;;8.35;2.60;;;16.70;99.90;;;;;;6250980;23;20024;-86
2023/07/02 06:05:49;;;;;;;9.23;1.92;;;16.90;99.90;;;;;;6224637;23;20103;-86
2023/07/02 06:08:17;;;;;;;7.20;2.20;;;17.00;99.90;;;;;;6223338;23;20020;-84
2023/07/02 06:10:45;;;;;;;6.93;2.25;;;17.10;99.90;;;;;;6224306;23;20478;-86
2023/07/02 06:13:11;;;;;;;11.88;2.85;;;17.10;99.90;;;;;;6250313;23;20028;-85
2023/07/02 06:15:37;;;;;;;7.55;2.47;;;17.20;99.90;;;;;;6223275;23;20021;-83
2023/07/02 06:21:45;;;;;;;9.82;2.30;;;17.40;99.90;;;;;;6250196;23;20019;-84
2023/07/02 06:24:10;;;;;;;7.60;2.40;;;17.40;99.90;;;;;;6223895;23;20095;-85
2023/07/02 06:26:36;;;;;;;8.60;2.30;;;17.40;99.90;;;;;;6200802;23;20023;-83
2023/07/02 06:29:02;;;;;;;7.85;2.60;;;17.50;99.90;;;;;;6223507;23;20028;-86
2023/07/02 06:31:27;;;;;;;8.52;2.47;;;17.60;99.90;;;;;;6246928;23;20047;-84
2023/07/02 06:33:53;;;;;;;6.57;2.00;;;17.80;99.90;;;;;;6246679;23;20027;-88
2023/07/02 06:36:19;;;;;;;9.68;2.38;;;17.90;99.90;;;;;;6246311;23;20031;-83
2023/07/02 06:38:45;;;;;;;5.93;1.70;;;17.90;99.90;;;;;;6246984;23;20087;-84
2023/07/02 06:41:11;;;;;;;9.95;2.63;;;18.00;99.90;;;;;;6247278;23;20023;-85
2023/07/02 06:43:37;;;;;;;10.20;3.45;;;18.20;99.90;;;;;;6248801;23;20351;-88
2023/07/02 06:46:03;;;;;;;9.98;2.97;;;18.40;99.90;;;;;;6196287;23;20024;-85
2023/07/02 06:48:30;;;;;;;14.73;2.55;;;18.30;99.90;;;;;;6220757;23;20020;-86
2023/07/02 06:50:56;;;;;;;8.90;2.05;;;18.10;99.90;;;;;;6221377;23;20031;-88
2023/07/02 06:53:21;;;;;;;10.73;2.17;;;17.90;99.90;;;;;;6220102;23;20032;-83
2023/07/02 06:55:47;;;;;;;6.15;1.80;;;17.80;99.90;;;;;;6249195;23;20328;-86
2023/07/02 06:58:13;;;;;;;7.93;1.52;;;17.80;99.90;;;;;;6249860;23;20016;-82
2023/07/02 07:00:38;;;;;;;7.00;1.95;;;18.00;99.90;;;;;;6222362;23;20446;-83
2023/07/02 07:03:04;;;;;;;8.07;1.60;;;18.10;99.90;;;;;;6249555;23;20066;-86
2023/07/02 07:05:33;;;;;;;8.88;2.13;;;18.30;99.90;;;;;;6250424;23;20027;-84
2023/07/02 07:08:03;;;;;;;6.03;1.77;;;18.40;99.90;;;;;;6220544;23;20016;-85
2023/07/02 07:10:33;;;;;;;10.05;1.83;;;18.70;99.90;;;;;;6223117;23;20056;-86
2023/07/02 07:13:00;;;;;;;8.05;1.67;;;18.70;99.90;;;;;;6220050;23;20027;-89
2023/07/02 07:15:26;;;;;;;6.28;1.73;;;18.50;99.90;;;;;;6248853;23;20068;-86
2023/07/02 07:21:34;;;;;;;5.43;1.10;;;18.60;99.90;;;;;;6250833;23;20019;-85
2023/07/02 07:23:59;;;;;;;12.27;1.33;;;18.70;99.90;;;;;;6250656;23;20024;-88
2023/07/02 07:26:25;;;;;;;3.15;0.80;;;18.90;99.90;;;;;;6250710;23;20022;-86
2023/07/02 07:28:51;;;;;;;6.32;1.40;;;19.10;99.90;;;;;;6250189;23;20031;-84
2023/07/02 07:31:16;;;;;;;5.22;1.55;;;19.20;99.90;;;;;;6251638;23;20016;-86
2023/07/02 07:33:42;;;;;;;6.90;1.98;;;19.40;99.90;;;;;;6223413;23;20328;-85
2023/07/02 07:36:08;;;;;;;8.68;1.30;;;19.40;99.90;;;;;;6250062;23;20023;-87
2023/07/02 07:38:33;;;;;;;3.80;1.42;;;19.50;99.90;;;;;;6250928;23;20407;-85
2023/07/02 07:40:59;;;;;;;7.13;1.20;;;19.60;99.90;;;;;;6249780;23;20023;-84
2023/07/02 07:43:25;;;;;;;4.47;1.58;;;19.70;99.90;;;;;;6250078;23;20012;-86
2023/07/02 07:45:54;;;;;;;4.97;0.70;;;19.80;99.90;;;;;;6249349;23;20038;-85
2023/07/02 07:48:21;;;;;;;2.58;0.90;;;20.00;99.90;;;;;;6223452;23;20024;-86
2023/07/02 07:50:47;;;;;;;7.05;1.40;;;20.20;99.90;;;;;;6249309;23;20020;-86
2023/07/02 07:53:12;;;;;;;6.72;1.45;;;20.20;99.90;;;;;;6247857;23;20118;-85
2023/07/02 07:55:38;;;;;;;8.05;1.30;;;20.00;99.90;;;;;;6248430;23;20030;-86
2023/07/02 07:58:04;;;;;;;6.82;1.05;;;20.10;99.90;;;;;;6248097;23;20462;-84
2023/07/02 08:00:29;;;;;;;4.00;1.50;;;20.00;99.60;;;;;;6248176;23;20085;-85
2023/07/02 08:02:55;;;;;;;5.10;1.10;;;20.10;99.90;;;;;;6221307;23;20020;-87
2023/07/02 08:05:22;;;;;;;4.43;1.27;;;20.30;99.90;;;;;;6220477;23;20125;-85
2023/07/02 08:07:48;;;;;;;6.18;1.33;;;20.30;99.90;;;;;;6247056;23;20063;-85
2023/07/02 08:10:14;;;;;;;6.72;1.10;;;20.30;99.90;;;;;;6248024;23;20100;-86
2023/07/02 08:12:43;;;;;;;5.38;1.67;;;20.50;99.90;;;;;;6247945;23;20423;-85
2023/07/02 08:15:09;;;;;;;5.00;0.90;;;20.60;99.90;;;;;;6221080;23;20020;-85
2023/07/02 08:17:35;;;;;;;7.40;1.55;;;20.80;99.90;;;;;;6220663;23;20339;-85
2023/07/02 08:20:01;;;;;;;5.63;1.13;;;20.80;99.70;;;;;;6220911;23;20405;-84
2023/07/02 08:22:27;;;;;;;6.22;1.30;;;20.70;99.30;;;;;;6220726;23;20028;-85
2023/07/02 08:24:53;;;;;;;3.15;0.80;;;20.40;99.10;;;;;;6248444;23;20020;-86
2023/07/02 08:27:19;;;;;;;4.13;1.00;;;20.20;99.40;;;;;;6220801;23;20020;-85
2023/07/02 08:29:48;;;;;;;3.75;1.05;;;20.10;99.90;;;;;;6247808;23;20016;-85
2023/07/02 08:32:15;;;;;;;6.30;1.08;;;19.80;99.90;;;;;;6220320;23;20145;-85
2023/07/02 08:34:41;;;;;;;6.55;1.27;;;19.60;99.90;;;;;;6247615;23;20032;-85
2023/07/02 08:37:06;;;;;;;5.00;1.30;;;19.40;99.90;;;;;;6220963;23;20095;-84
2023/07/02 08:39:35;;;;;;;4.88;1.25;;;19.30;99.90;;;;;;6221513;23;20024;-85
2023/07/02 08:42:01;;;;;;;6.63;1.30;;;19.20;99.90;;;;;;6248570;23;20044;-85
2023/07/02 08:44:27;;;;;;;6.45;0.95;;;19.30;99.90;;;;;;6248194;23;20414;-85
2023/07/02 08:46:56;;;;;;;4.03;1.50;;;19.60;99.90;;;;;;6195359;23;20027;-85
2023/07/02 08:49:22;;;;;;;8.10;1.48;;;19.80;99.90;;;;;;6247005;23;20486;-84
2023/07/02 08:51:47;;;;;;;8.63;1.45;;;19.80;99.90;;;;;;6220152;23;20075;-88
2023/07/02 08:54:14;;;;;;;6.65;1.40;;;20.00;99.90;;;;;;6219913;23;20109;-86
2023/07/02 08:56:40;;;;;;;4.05;1.40;;;20.10;99.90;;;;;;6195592;23;20106;-85
2023/07/02 08:59:09;;;;;;;9.50;1.85;;;20.20;99.90;;;;;;6195453;23;20455;-87
2023/07/02 09:01:52;;;;;;;7.25;1.30;;;20.40;99.90;;;;;;6195448;23;20028;-88
2023/07/02 09:04:23;;;;;;;5.75;1.30;;;20.50;99.90;;;;;;6220552;23;20432;-81
2023/07/02 09:06:51;;;;;;;5.28;1.20;;;20.40;99.90;;;;;;6219546;23;20016;-83
2023/07/02 09:09:17;;;;;;;4.40;0.93;;;20.50;99.90;;;;;;6219345;23;20026;-85
2023/07/02 09:11:50;;;;;;;3.92;0.82;;;20.70;99.90;;;;;;6245605;23;20020;-84
2023/07/02 09:14:30;;;;;;;5.97;0.80;;;21.00;99.00;;;;;;6244863;23;20462;-83
2023/07/02 09:17:04;;;;;;;3.85;0.98;;;21.10;99.00;;;;;;6246865;23;20012;-81
2023/07/02 09:19:30;;;;;;;8.68;1.00;;;21.00;99.10;;;;;;6247534;23;20016;-83
2023/07/02 09:22:01;;;;;;;3.08;0.85;;;20.90;98.00;;;;;;6248881;23;20024;-82
2023/07/02 09:24:29;;;;;;;3.45;0.80;;;20.80;98.20;;;;;;6220185;23;20020;-86
2023/07/02 09:26:59;;;;;;;5.30;0.90;;;21.10;98.00;;;;;;6220590;23;20021;-83
2023/07/02 09:29:28;;;;;;;6.15;1.00;;;21.10;97.50;;;;;;6220317;23;20016;-84
2023/07/02 09:36:22;;;;;;;4.25;0.70;;;21.10;96.00;;;;;;6246578;23;20026;-83
2023/07/02 09:38:48;;;;;;;6.93;1.35;;;21.50;96.30;;;;;;6246476;23;20020;-83
2023/07/02 09:41:13;;;;;;;6.22;0.90;;;21.80;96.50;;;;;;6246708;23;20090;-83
2023/07/02 09:43:39;;;;;;;5.28;0.80;;;21.70;96.60;;;;;;6246479;23;20026;-84
2023/07/02 09:46:06;;;;;;;4.15;0.80;;;21.90;96.60;;;;;;6219728;23;20020;-84
2023/07/02 09:48:34;;;;;;;13.95;11.20;;;22.10;95.70;;;;;;6246085;23;20043;-83
2023/07/02 09:51:00;;;;;;;449.73;307.35;;;22.00;95.70;;;;;;6246346;23;20134;-84
2023/07/02 09:53:28;;;;;;;3.65;0.70;;;21.90;95.30;;;;;;6247833;23;20419;-84
2023/07/02 09:55:53;;;;;;;4.32;0.80;;;22.00;95.10;;;;;;6246933;23;20107;-83
2023/07/02 09:58:19;;;;;;;3.05;0.88;;;21.80;95.30;;;;;;6218899;23;20451;-83
2023/07/02 10:00:45;;;;;;;4.28;1.00;;;21.80;94.90;;;;;;6246502;23;20405;-84
2023/07/02 10:03:11;;;;;;;5.13;0.75;;;22.00;95.30;;;;;;6246108;23;20027;-86
2023/07/02 10:05:36;;;;;;;2.58;0.63;;;22.30;95.30;;;;;;6220328;23;20064;-84
2023/07/02 10:08:15;;;;;;;4.10;0.70;;;22.20;94.50;;;;;;6194383;23;20477;-82
2023/07/02 10:10:41;;;;;;;1.70;0.60;;;22.10;94.20;;;;;;6246226;23;20028;-86
2023/07/02 10:13:06;;;;;;;2.85;0.73;;;22.00;93.80;;;;;;6247356;23;20020;-84
2023/07/02 10:15:37;;;;;;;4.07;0.68;;;22.10;94.90;;;;;;6246839;23;20335;-82
2023/07/02 10:18:04;;;;;;;4.63;1.00;;;22.30;95.70;;;;;;6248831;23;20016;-83
2023/07/02 10:20:41;;;;;;;4.50;0.90;;;22.50;95.30;;;;;;6220328;23;20119;-81
2023/07/02 10:23:08;;;;;;;5.10;0.88;;;22.60;94.10;;;;;;6246295;23;20065;-83
2023/07/02 10:25:39;;;;;;;2.25;0.60;;;22.80;92.60;;;;;;6245889;23;20117;-81
2023/07/02 10:28:20;;;;;;;3.28;0.60;;;22.80;93.10;;;;;;6246479;23;20016;-82
2023/07/02 10:30:46;;;;;;;2.65;0.50;;;22.50;92.40;;;;;;6246538;23;20020;-83
2023/07/02 10:33:16;;;;;;;3.17;0.65;;;22.30;91.90;;;;;;6247091;23;20024;-82
2023/07/02 10:35:46;;;;;;;2.00;0.60;;;22.50;92.90;;;;;;6246271;23;20031;-85
2023/07/02 10:38:19;;;;;;;5.97;0.90;;;22.40;93.90;;;;;;6244667;23;20443;-82
2023/07/02 10:40:45;;;;;;;5.80;1.13;;;22.50;94.00;;;;;;6245159;23;20039;-82
2023/07/02 10:43:11;;;;;;;2.88;0.80;;;22.70;94.10;;;;;;6244877;23;20020;-82
2023/07/02 10:45:37;;;;;;;4.57;0.85;;;22.90;94.90;;;;;;6244486;23;20051;-83
2023/07/02 10:51:43;;;;;;;5.78;0.68;;;23.20;92.90;;;;;;6250866;23;20088;-82
2023/07/02 10:54:09;;;;;;;2.72;0.70;;;23.30;93.10;;;;;;6223903;23;20354;-84
2023/07/02 10:56:35;;;;;;;127.40;86.32;;;23.30;93.40;;;;;;6252076;23;20012;-83
2023/07/02 10:59:01;;;;;;;4.53;1.95;;;22.90;93.40;;;;;;6253801;23;20446;-83
2023/07/02 11:01:29;;;;;;;5.15;0.80;;;22.50;93.40;;;;;;6251932;23;20027;-85
2023/07/02 11:04:03;;;;;;;8.23;1.23;;;22.40;93.30;;;;;;6250751;23;20039;-87
2023/07/02 11:06:30;;;;;;;3.67;1.27;;;22.60;93.90;;;;;;6252161;23;20024;-87
2023/07/02 11:08:57;;;;;;;513.72;409.60;;;22.80;94.70;;;;;;6250044;23;20259;-87
2023/07/02 11:11:23;;;;;;;1136.00;723.20;;;23.20;93.80;;;;;;6249935;23;20443;-84
2023/07/02 11:13:51;;;;;;;1285.63;662.63;;;23.40;93.90;;;;;;6222335;23;20051;-87
2023/07/02 11:16:29;;;;;;;1281.60;733.73;;;23.60;93.30;;;;;;6249029;23;20020;-84
2023/07/02 11:19:09;;;;;;;421.60;331.88;;;23.70;93.10;;;;;;6249693;23;20451;-85
2023/07/02 11:21:36;;;;;;;515.03;240.90;;;23.20;91.90;;;;;;6223370;23;20103;-85
2023/07/02 11:24:07;;;;;;;6.28;1.55;;;22.80;92.60;;;;;;6249273;23;20050;-86
2023/07/02 11:26:38;;;;;;;45.80;42.72;;;22.60;92.70;;;;;;6222974;23;20091;-89
2023/07/02 11:29:03;;;;;;;10.52;2.17;;;22.70;92.40;;;;;;6250378;23;20108;-88
2023/07/02 11:31:29;;;;;;;102.90;94.47;;;22.80;93.00;;;;;;6222370;23;20099;-87
2023/07/02 11:48:39;;;;;;;91.32;83.25;;;22.60;91.90;;;;;;6249125;23;20493;-85
2023/07/02 11:51:05;;;;;;;155.02;142.57;;;22.70;92.80;;;;;;6250300;23;20083;-85
2023/07/02 11:53:30;;;;;;;73.75;69.18;;;22.30;92.80;;;;;;6222186;23;20031;-84
2023/07/02 11:55:56;;;;;;;182.73;168.23;;;22.20;93.10;;;;;;6249893;23;20020;-88
2023/07/02 11:58:22;;;;;;;75.10;69.18;;;22.20;93.40;;;;;;6252006;23;20059;-88
2023/07/02 12:00:47;;;;;;;50.70;46.08;;;22.10;93.40;;;;;;6250156;23;20087;-86
2023/07/02 12:03:13;;;;;;;4.57;1.10;;;22.10;94.40;;;;;;6248129;23;20025;-89
2023/07/02 12:05:39;;;;;;;5.88;3.63;;;22.40;94.00;;;;;;6248221;23;20035;-86
2023/07/02 12:08:05;;;;;;;4.45;0.90;;;22.80;93.00;;;;;;6223390;23;20446;-86
2023/07/02 12:10:31;;;;;;;7.55;5.72;;;22.80;93.50;;;;;;6221359;23;20028;-87
2023/07/02 12:12:56;;;;;;;15.88;13.70;;;22.90;93.10;;;;;;6221360;23;20028;-85
2023/07/02 12:15:22;;;;;;;4.13;0.90;;;23.10;93.10;;;;;;6249395;23;20031;-85
2023/07/02 12:17:48;;;;;;;3.42;0.70;;;23.40;93.10;;;;;;6250157;23;20012;-84
2023/07/02 12:20:13;;;;;;;3.13;1.33;;;23.70;91.40;;;;;;6250020;23;20051;-86
2023/07/02 12:22:39;;;;;;;7.57;4.13;;;23.50;90.00;;;;;;6221363;23;20051;-82
2023/07/02 12:25:05;;;;;;;8.15;2.13;;;23.40;90.70;;;;;;6247401;23;20012;-87
2023/07/02 12:27:31;;;;;;;8.43;4.95;;;23.00;91.20;;;;;;6220910;23;20047;-85
2023/07/02 12:29:56;;;;;;;12.27;11.05;;;22.60;91.60;;;;;;6247820;23;20447;-83
2023/07/02 12:32:22;;;;;;;58.15;50.90;;;22.50;92.00;;;;;;6247152;23;20027;-84
2023/07/02 12:34:48;;;;;;;187.95;170.23;;;22.40;92.10;;;;;;6220936;23;20359;-85
2023/07/02 12:37:17;;;;;;;26.02;24.23;;;22.20;92.50;;;;;;6248096;23;20020;-87
2023/07/02 12:39:43;;;;;;;17.50;15.98;;;22.10;91.90;;;;;;6246632;23;20404;-88
2023/07/02 12:42:09;;;;;;;57.20;51.95;;;22.60;91.70;;;;;;6199207;23;20024;-84
2023/07/02 12:44:34;;;;;;;122.82;115.97;;;23.10;91.10;;;;;;6222281;23;20020;-87
2023/07/02 12:47:00;;;;;;;150.90;139.38;;;23.20;88.50;;;;;;6250180;23;20055;-82
2023/07/02 12:49:26;;;;;;;151.63;139.45;;;23.20;88.20;;;;;;6223876;23;20016;-87
2023/07/02 12:51:52;;;;;;;155.35;142.93;;;22.80;88.10;;;;;;6251154;23;20028;-86
2023/07/02 12:54:17;;;;;;;48.20;44.90;;;22.50;88.90;;;;;;6248777;23;20442;-83
2023/07/02 12:56:43;;;;;;;3.78;1.95;;;22.20;90.00;;;;;;6249316;23;20020;-84
2023/07/02 12:59:09;;;;;;;6.10;4.20;;;22.30;90.80;;;;;;6222607;23;20024;-86
2023/07/02 13:01:35;;;;;;;3.63;1.02;;;22.80;91.20;;;;;;6249148;23;20016;-84
2023/07/02 13:04:01;;;;;;;40.20;35.60;;;22.90;90.70;;;;;;6249445;23;20039;-82
2023/07/02 13:06:27;;;;;;;30.00;27.48;;;22.80;90.60;;;;;;6249125;23;20099;-87
2023/07/02 13:08:55;;;;;;;4.82;2.53;;;22.60;90.50;;;;;;6247263;23;20024;-83